Time;durP1;ratioP1;P1;durP2;ratioP2;P2;SDS_P1;SDS_P2;PMS_P1;PMS_P2;Temp;Humidity;BMP_temperature;BMP_pressure;BME280_temperature;BME280_humidity;BME280_pressure;Samples;Min_cycle;Max_cycle;Signal;HPM_P1;HPM_P2
2022/01/13 00:01:43;;;;;;;36.75;16.20;;;6.90;99.90;;;;;;5082251;28;35825;-61
2022/01/13 00:04:12;;;;;;;37.92;14.60;;;6.90;99.90;;;;;;5082656;27;39237;-61
2022/01/13 00:06:40;;;;;;;35.63;14.73;;;7.00;99.90;;;;;;5084704;28;37526;-61
2022/01/13 00:09:08;;;;;;;33.90;15.10;;;6.80;99.90;;;;;;5084543;27;36826;-61
2022/01/13 00:11:36;;;;;;;34.08;14.52;;;6.80;99.90;;;;;;5084645;27;39009;-61
2022/01/13 00:17:25;;;;;;;31.33;14.20;;;6.80;99.90;;;;;;5045657;28;39445;-61
2022/01/13 00:20:19;;;;;;;28.30;13.32;;;6.80;99.90;;;;;;5083022;27;38035;-61
2022/01/13 00:23:38;;;;;;;25.95;13.35;;;6.70;99.90;;;;;;5083313;28;37828;-61
2022/01/13 00:25:38;;;;;;;30.38;13.30;;;6.70;99.90;;;;;;5083030;28;37526;-61
2022/01/13 00:28:14;;;;;;;31.05;13.43;;;6.70;99.90;;;;;;5084678;28;37869;-61
2022/01/13 00:30:41;;;;;;;30.08;12.40;;;6.60;99.90;;;;;;5084730;28;39217;-61
2022/01/13 00:33:11;;;;;;;28.85;11.80;;;6.60;99.90;;;;;;5084726;27;36471;-61
2022/01/13 00:35:39;;;;;;;30.23;11.98;;;6.60;99.90;;;;;;5083719;27;38504;-61
2022/01/13 00:38:06;;;;;;;32.38;11.25;;;6.60;99.90;;;;;;5082975;28;37365;-61
2022/01/13 00:40:33;;;;;;;31.10;11.65;;;6.50;99.90;;;;;;5084267;28;39610;-61
2022/01/13 00:43:00;;;;;;;27.67;11.77;;;6.60;99.90;;;;;;5082863;27;37570;-61
2022/01/13 00:45:28;;;;;;;23.92;9.57;;;6.60;99.90;;;;;;5084492;28;36468;-61
2022/01/13 00:47:55;;;;;;;35.88;12.35;;;6.50;99.90;;;;;;5083680;28;37591;-61
2022/01/13 00:50:24;;;;;;;31.10;11.23;;;6.50;99.90;;;;;;5083628;28;37588;-61
2022/01/13 00:52:51;;;;;;;26.63;11.15;;;6.60;99.90;;;;;;5084278;27;37845;-61
2022/01/13 00:55:22;;;;;;;25.63;11.23;;;6.60;99.90;;;;;;5084375;27;35777;-62
2022/01/13 00:57:49;;;;;;;26.00;11.00;;;6.60;99.90;;;;;;5082926;27;39302;-61
2022/01/13 01:00:18;;;;;;;26.52;11.75;;;6.50;99.90;;;;;;5082234;27;36761;-61
2022/01/13 01:02:45;;;;;;;25.92;11.38;;;6.60;99.90;;;;;;5083167;27;37522;-61
2022/01/13 01:05:13;;;;;;;27.02;11.30;;;6.50;99.90;;;;;;5083233;27;36676;-61
2022/01/13 01:07:41;;;;;;;27.50;12.02;;;6.50;99.90;;;;;;5083455;27;37617;-61
2022/01/13 01:10:09;;;;;;;28.75;11.90;;;6.50;99.90;;;;;;5083220;28;37103;-61
2022/01/13 01:12:38;;;;;;;24.95;11.52;;;6.50;99.90;;;;;;5082330;28;37503;-61
2022/01/13 01:15:08;;;;;;;26.83;11.35;;;6.50;99.90;;;;;;5084021;27;38733;-61
2022/01/13 01:17:42;;;;;;;28.42;12.45;;;6.50;99.90;;;;;;5083933;28;36245;-61
2022/01/13 01:20:10;;;;;;;27.83;11.18;;;6.50;99.90;;;;;;5083390;28;35770;-61
2022/01/13 01:22:54;;;;;;;29.85;12.27;;;6.50;99.90;;;;;;5082953;27;36623;-61
2022/01/13 01:28:20;;;;;;;28.38;12.02;;;6.50;99.90;;;;;;5065812;27;38340;-61
2022/01/13 01:30:50;;;;;;;37.80;13.13;;;6.50;99.90;;;;;;5082803;27;36759;-61
2022/01/13 01:33:20;;;;;;;34.92;13.88;;;6.50;99.90;;;;;;5082185;28;36572;-61
2022/01/13 01:35:48;;;;;;;33.47;11.90;;;6.50;99.90;;;;;;5082087;27;37721;-61
2022/01/13 01:38:16;;;;;;;33.95;13.73;;;6.50;99.90;;;;;;5081168;27;37405;-61
2022/01/13 01:40:44;;;;;;;35.90;12.55;;;6.50;99.90;;;;;;5082798;28;37804;-61
2022/01/13 01:43:12;;;;;;;31.25;12.85;;;6.60;99.90;;;;;;5081579;28;36439;-61
2022/01/13 01:45:44;;;;;;;30.73;12.85;;;6.50;99.90;;;;;;5083470;27;39204;-61
2022/01/13 01:48:18;;;;;;;30.67;13.00;;;6.50;99.90;;;;;;5082119;28;37522;-61
2022/01/13 01:50:54;;;;;;;33.00;12.43;;;6.50;99.90;;;;;;5083687;28;36816;-61
2022/01/13 01:53:22;;;;;;;28.50;12.27;;;6.50;99.90;;;;;;5083031;27;37803;-61
2022/01/13 01:55:51;;;;;;;28.10;12.93;;;6.60;99.90;;;;;;5081245;27;36658;-61
2022/01/13 01:58:18;;;;;;;35.70;12.60;;;6.50;99.90;;;;;;5083481;27;38298;-61
2022/01/13 02:00:47;;;;;;;38.63;15.27;;;6.50;99.90;;;;;;5081021;28;36513;-61
2022/01/13 02:03:15;;;;;;;37.50;13.23;;;6.50;99.90;;;;;;5082299;27;36360;-61
2022/01/13 02:05:43;;;;;;;30.65;13.38;;;6.50;99.90;;;;;;5082881;28;36504;-61
2022/01/13 02:08:10;;;;;;;30.52;13.02;;;6.60;99.90;;;;;;5082996;27;37578;-61
2022/01/13 02:10:37;;;;;;;32.10;13.18;;;6.50;99.90;;;;;;5082692;28;36607;-61
2022/01/13 02:13:10;;;;;;;35.42;14.40;;;6.50;99.90;;;;;;5081871;27;38359;-61
2022/01/13 02:15:48;;;;;;;45.22;16.05;;;6.50;99.90;;;;;;5083228;28;38271;-61
2022/01/13 02:18:16;;;;;;;36.92;14.13;;;6.50;99.90;;;;;;5082631;27;38728;-61
2022/01/13 02:20:48;;;;;;;35.08;13.38;;;6.50;99.90;;;;;;5082730;27;36613;-62
2022/01/13 02:23:32;;;;;;;35.08;13.55;;;6.50;99.90;;;;;;5082155;27;37630;-61
2022/01/13 02:26:00;;;;;;;31.35;13.75;;;6.50;99.90;;;;;;5082808;27;37799;-61
2022/01/13 02:28:28;;;;;;;33.85;14.25;;;6.50;99.90;;;;;;5081873;27;37604;-61
2022/01/13 02:30:55;;;;;;;30.38;12.18;;;6.50;99.90;;;;;;5081274;28;36781;-61
2022/01/13 02:33:23;;;;;;;28.10;12.05;;;6.50;99.90;;;;;;5081937;28;37704;-61
2022/01/13 02:35:51;;;;;;;33.38;12.52;;;6.50;99.90;;;;;;5082817;27;37347;-61
2022/01/13 02:38:19;;;;;;;31.02;13.02;;;6.60;99.90;;;;;;5081018;27;38377;-61
2022/01/13 02:40:53;;;;;;;34.92;13.35;;;6.60;99.90;;;;;;5081989;28;37874;-61
2022/01/13 02:43:21;;;;;;;29.73;12.52;;;6.60;99.90;;;;;;5080810;28;36254;-61
2022/01/13 02:46:04;;;;;;;35.75;12.88;;;6.60;99.90;;;;;;5080085;28;37936;-61
2022/01/13 02:48:32;;;;;;;28.02;12.90;;;6.60;99.90;;;;;;5081616;27;37786;-61
2022/01/13 02:51:02;;;;;;;30.40;11.75;;;6.60;99.90;;;;;;5081574;27;38517;-61
2022/01/13 02:53:30;;;;;;;27.50;11.65;;;6.60;99.90;;;;;;5080534;27;36367;-61
2022/01/13 02:56:02;;;;;;;32.42;11.68;;;6.60;99.90;;;;;;5082106;28;40239;-61
2022/01/13 02:58:30;;;;;;;32.35;11.32;;;6.60;99.90;;;;;;5080028;27;36241;-61
2022/01/13 03:00:57;;;;;;;29.92;11.45;;;6.70;99.90;;;;;;5080603;27;36862;-61
2022/01/13 03:03:25;;;;;;;37.22;12.30;;;6.60;99.90;;;;;;5081836;27;39961;-61
2022/01/13 03:05:52;;;;;;;29.52;10.95;;;6.70;99.90;;;;;;5081170;27;38214;-61
2022/01/13 03:08:21;;;;;;;30.45;12.00;;;6.70;99.90;;;;;;5081673;28;38390;-61
2022/01/13 03:10:48;;;;;;;30.70;12.18;;;6.60;99.90;;;;;;5082299;28;36594;-62
2022/01/13 03:13:17;;;;;;;43.10;13.23;;;6.60;99.90;;;;;;5079982;27;37549;-61
2022/01/13 03:15:45;;;;;;;37.53;13.27;;;6.60;99.90;;;;;;5081340;28;37877;-61
2022/01/13 03:18:12;;;;;;;31.15;12.93;;;6.60;99.90;;;;;;5081004;28;37315;-61
2022/01/13 03:20:39;;;;;;;40.50;12.38;;;6.60;99.90;;;;;;5081314;27;36586;-61
2022/01/13 03:23:07;;;;;;;34.08;11.85;;;6.60;99.90;;;;;;5080462;27;37433;-61
2022/01/13 03:25:35;;;;;;;44.58;12.98;;;6.60;99.90;;;;;;5081752;27;37543;-61
2022/01/13 03:28:08;;;;;;;37.60;13.48;;;6.60;99.90;;;;;;5080260;28;38620;-61
2022/01/13 03:30:35;;;;;;;40.25;13.38;;;6.60;99.90;;;;;;5081746;28;36735;-61
2022/01/13 03:33:03;;;;;;;29.95;13.40;;;6.60;99.90;;;;;;5081866;28;37548;-61
2022/01/13 03:35:30;;;;;;;29.17;12.68;;;6.60;99.90;;;;;;5082318;27;37510;-61
2022/01/13 03:37:58;;;;;;;34.92;13.23;;;6.60;99.90;;;;;;5080822;27;37513;-61
2022/01/13 03:40:27;;;;;;;33.88;12.95;;;6.60;99.90;;;;;;5081414;28;37536;-61
2022/01/13 03:42:57;;;;;;;30.45;12.55;;;6.60;99.90;;;;;;5080919;27;37529;-61
2022/01/13 03:45:25;;;;;;;28.65;12.02;;;6.60;99.90;;;;;;5081907;27;39148;-61
2022/01/13 03:47:52;;;;;;;33.80;13.18;;;6.50;99.90;;;;;;5080706;28;39107;-61
2022/01/13 03:50:19;;;;;;;31.25;13.80;;;6.60;99.90;;;;;;5080984;27;38224;-61
2022/01/13 03:53:49;;;;;;;28.00;13.45;;;6.60;99.90;;;;;;5080941;27;36323;-61
2022/01/13 03:56:50;;;;;;;37.17;12.40;;;6.50;99.90;;;;;;5080412;28;36653;-61
2022/01/13 04:00:02;;;;;;;41.35;13.52;;;6.50;99.90;;;;;;5079451;28;37412;-61
2022/01/13 04:02:32;;;;;;;23.73;11.48;;;6.50;99.90;;;;;;5080680;28;35647;-61
2022/01/13 04:04:59;;;;;;;24.23;11.50;;;6.50;99.90;;;;;;5081973;28;37777;-61
2022/01/13 04:07:27;;;;;;;33.90;12.55;;;6.50;99.90;;;;;;5081342;28;38148;-61
2022/01/13 04:10:29;;;;;;;30.30;12.68;;;6.50;99.90;;;;;;5081282;27;36119;-61
2022/01/13 04:12:57;;;;;;;30.05;11.60;;;6.50;99.90;;;;;;5080521;28;36599;-61
2022/01/13 04:15:28;;;;;;;37.47;12.02;;;6.50;99.90;;;;;;5080787;28;36300;-61
2022/01/13 04:17:58;;;;;;;36.75;13.45;;;6.50;99.90;;;;;;5082268;28;38177;-61
2022/01/13 04:20:25;;;;;;;33.70;12.02;;;6.50;99.90;;;;;;5083757;28;36301;-61
2022/01/13 04:22:52;;;;;;;28.38;11.73;;;6.50;99.90;;;;;;5084015;28;37010;-61
2022/01/13 04:25:23;;;;;;;33.38;13.40;;;6.40;99.90;;;;;;5085264;27;37432;-61
2022/01/13 04:27:51;;;;;;;33.95;12.77;;;6.50;99.90;;;;;;5084413;27;36709;-61
2022/01/13 04:30:46;;;;;;;27.63;12.13;;;6.50;99.90;;;;;;5084673;27;38985;-61
2022/01/13 04:33:15;;;;;;;33.78;13.32;;;6.50;99.90;;;;;;5084145;27;37863;-61
2022/01/13 04:35:44;;;;;;;35.67;12.57;;;6.50;99.90;;;;;;5084544;28;38370;-61
2022/01/13 04:38:11;;;;;;;30.98;12.65;;;6.50;99.90;;;;;;5083589;28;37518;-61
2022/01/13 04:40:44;;;;;;;31.33;12.73;;;6.60;99.90;;;;;;5085222;27;38614;-61
2022/01/13 04:43:13;;;;;;;32.60;12.82;;;6.50;99.90;;;;;;5084411;28;36599;-61
2022/01/13 04:45:40;;;;;;;30.27;11.40;;;6.60;99.90;;;;;;5084079;28;37950;-61
2022/01/13 04:48:08;;;;;;;25.05;12.13;;;6.60;99.90;;;;;;5084470;27;37537;-61
2022/01/13 04:50:37;;;;;;;30.10;11.85;;;6.50;99.90;;;;;;5084148;27;39442;-61
2022/01/13 04:53:04;;;;;;;29.23;12.10;;;6.60;99.90;;;;;;5083812;27;36534;-61
2022/01/13 04:55:34;;;;;;;33.78;11.82;;;6.60;99.90;;;;;;5084564;27;36481;-61
2022/01/13 04:58:02;;;;;;;32.28;12.35;;;6.60;99.90;;;;;;5084000;28;38811;-61
2022/01/13 05:00:30;;;;;;;30.85;11.73;;;6.60;99.90;;;;;;5082944;28;37980;-61
2022/01/13 05:02:58;;;;;;;34.25;12.52;;;6.60;99.90;;;;;;5082732;28;38030;-61
2022/01/13 05:05:26;;;;;;;31.48;13.23;;;6.60;99.90;;;;;;5084668;27;36351;-61
2022/01/13 05:07:55;;;;;;;37.17;12.27;;;6.60;99.90;;;;;;5082620;27;35842;-61
2022/01/13 05:10:22;;;;;;;34.20;12.52;;;6.60;99.90;;;;;;5083986;28;38959;-61
2022/01/13 05:12:54;;;;;;;30.27;12.60;;;6.50;99.90;;;;;;5083761;28;38654;-61
2022/01/13 05:15:25;;;;;;;26.50;11.05;;;6.60;99.90;;;;;;5083251;27;39178;-61
2022/01/13 05:18:09;;;;;;;38.17;12.07;;;6.60;99.90;;;;;;5082596;27;37899;-61
2022/01/13 05:20:42;;;;;;;34.00;12.18;;;6.60;99.90;;;;;;5080579;27;38867;-61
2022/01/13 05:23:13;;;;;;;37.53;11.80;;;6.60;99.90;;;;;;5081355;28;37434;-61
2022/01/13 05:25:41;;;;;;;35.55;12.60;;;6.60;99.90;;;;;;5083564;28;38036;-61
2022/01/13 05:28:09;;;;;;;35.72;12.45;;;6.60;99.90;;;;;;5081468;28;36471;-62
2022/01/13 05:30:38;;;;;;;45.83;12.68;;;6.60;99.90;;;;;;5080985;27;39092;-62
2022/01/13 05:33:05;;;;;;;35.17;11.82;;;6.60;99.90;;;;;;5082934;28;38682;-62
2022/01/13 05:35:39;;;;;;;36.67;12.88;;;6.60;99.90;;;;;;5080851;27;39700;-62
2022/01/13 05:38:07;;;;;;;;;;;6.60;99.90;;;;;;5080394;28;36445;-61
2022/01/13 05:40:37;;;;;;;28.77;12.82;;;6.60;99.90;;;;;;5080917;27;35947;-62
2022/01/13 05:43:06;;;;;;;29.48;13.15;;;6.60;99.90;;;;;;5082214;27;37009;-62
2022/01/13 05:45:33;;;;;;;35.40;13.82;;;6.60;99.90;;;;;;5081819;27;38984;-62
2022/01/13 05:48:02;;;;;;;33.72;12.77;;;6.70;99.90;;;;;;5080556;28;37617;-62
2022/01/13 05:50:30;;;;;;;35.13;14.63;;;6.70;99.90;;;;;;5082694;27;38469;-61
2022/01/13 05:52:58;;;;;;;29.58;13.45;;;6.70;99.90;;;;;;5081797;28;37711;-62
2022/01/13 05:55:26;;;;;;;34.90;15.07;;;6.70;99.90;;;;;;5082988;27;37655;-62
2022/01/13 05:57:55;;;;;;;44.45;14.38;;;6.80;99.90;;;;;;5082042;28;39832;-62
2022/01/13 06:00:23;;;;;;;40.72;12.95;;;6.80;99.90;;;;;;5082614;27;36253;-62
2022/01/13 06:02:51;;;;;;;35.33;13.43;;;6.80;99.90;;;;;;5082819;27;35556;-62
2022/01/13 06:05:19;;;;;;;38.42;13.93;;;6.80;99.90;;;;;;5082397;27;38493;-62
2022/01/13 06:07:47;;;;;;;37.40;14.75;;;6.80;99.90;;;;;;5082117;27;37992;-62
2022/01/13 06:10:18;;;;;;;43.38;14.95;;;6.80;99.90;;;;;;5083093;27;37610;-62
2022/01/13 06:12:47;;;;;;;38.55;14.27;;;6.80;99.90;;;;;;5082735;27;36482;-62
2022/01/13 06:15:19;;;;;;;41.63;15.70;;;6.90;99.90;;;;;;5083378;27;38392;-62
2022/01/13 06:17:49;;;;;;;37.03;15.32;;;6.90;99.90;;;;;;5082798;28;37598;-62
2022/01/13 06:20:18;;;;;;;41.08;15.45;;;6.90;99.90;;;;;;5083218;28;37905;-62
2022/01/13 06:22:48;;;;;;;42.83;16.13;;;6.90;99.90;;;;;;5083056;27;38494;-62
2022/01/13 06:25:17;;;;;;;41.15;16.23;;;6.90;99.90;;;;;;5083817;27;38524;-62
2022/01/13 06:27:45;;;;;;;38.80;14.80;;;6.90;99.90;;;;;;5082841;28;36386;-62
2022/01/13 06:30:15;;;;;;;34.20;15.05;;;6.90;99.90;;;;;;5083435;27;37623;-62
2022/01/13 06:32:44;;;;;;;39.17;15.18;;;6.90;99.90;;;;;;5082814;28;36591;-62
2022/01/13 06:35:12;;;;;;;48.53;17.70;;;6.90;99.90;;;;;;5083794;28;38323;-62
2022/01/13 06:37:41;;;;;;;40.72;16.08;;;7.00;99.90;;;;;;5083119;27;37776;-62
2022/01/13 06:40:10;;;;;;;45.05;16.75;;;7.00;99.90;;;;;;5083038;27;38491;-62
2022/01/13 06:42:38;;;;;;;51.00;17.52;;;7.00;99.90;;;;;;5082817;27;36836;-62
2022/01/13 06:45:07;;;;;;;48.85;17.08;;;7.00;99.90;;;;;;5082986;27;38042;-62
2022/01/13 06:47:35;;;;;;;45.92;16.98;;;7.00;99.90;;;;;;5082182;28;38007;-62
2022/01/13 06:50:04;;;;;;;49.58;18.17;;;7.10;99.90;;;;;;5081933;27;37348;-62
2022/01/13 06:52:31;;;;;;;41.42;17.10;;;7.10;99.90;;;;;;5083161;27;36882;-62
2022/01/13 06:54:59;;;;;;;39.13;16.55;;;7.10;99.90;;;;;;5083196;28;37540;-62
2022/01/13 06:57:26;;;;;;;46.00;17.05;;;7.10;99.90;;;;;;5082252;28;36496;-62
2022/01/13 06:59:53;;;;;;;39.95;17.75;;;7.10;99.90;;;;;;5083300;27;37496;-62
2022/01/13 07:02:22;;;;;;;51.45;18.98;;;7.10;99.90;;;;;;5082642;27;36961;-62
2022/01/13 07:04:50;;;;;;;44.60;16.88;;;7.10;99.90;;;;;;5081881;28;37552;-62
2022/01/13 07:07:18;;;;;;;53.47;18.55;;;7.10;99.90;;;;;;5080388;28;37531;-62
2022/01/13 07:09:46;;;;;;;48.35;18.30;;;7.20;99.90;;;;;;5082483;27;36542;-62
2022/01/13 07:12:13;;;;;;;50.75;19.30;;;7.10;99.90;;;;;;5082589;27;36812;-62
2022/01/13 07:14:40;;;;;;;61.10;18.65;;;7.10;99.90;;;;;;5082938;28;37537;-62
2022/01/13 07:17:08;;;;;;;50.53;18.15;;;7.20;99.90;;;;;;5081188;28;40105;-62
2022/01/13 07:19:35;;;;;;;45.40;18.67;;;7.10;99.90;;;;;;5072756;27;37794;-62
2022/01/13 07:22:03;;;;;;;56.72;19.58;;;7.10;99.90;;;;;;5072970;27;35639;-62
2022/01/13 07:24:31;;;;;;;55.60;21.50;;;7.10;99.90;;;;;;5075727;27;37606;-62
2022/01/13 07:26:59;;;;;;;55.63;19.88;;;7.10;99.90;;;;;;5075437;28;37473;-62
2022/01/13 07:29:26;;;;;;;53.30;19.55;;;7.20;99.90;;;;;;5075123;28;40178;-62
2022/01/13 07:31:53;;;;;;;49.72;20.42;;;7.20;99.90;;;;;;5075159;28;35786;-62
2022/01/13 07:34:21;;;;;;;71.60;20.75;;;7.20;99.90;;;;;;5075750;27;41269;-62
2022/01/13 07:36:48;;;;;;;52.90;20.15;;;7.20;99.90;;;;;;5073674;27;38126;-62
2022/01/13 07:39:15;;;;;;;63.75;20.65;;;7.20;99.90;;;;;;5074018;28;38734;-62
2022/01/13 07:41:45;;;;;;;48.92;19.95;;;7.20;99.90;;;;;;5074122;27;36597;-62
2022/01/13 07:44:12;;;;;;;50.80;20.60;;;7.20;99.90;;;;;;5075794;28;38310;-62
2022/01/13 07:46:39;;;;;;;44.70;18.92;;;7.20;99.90;;;;;;5074681;27;37892;-62
2022/01/13 07:49:07;;;;;;;44.05;18.63;;;7.20;99.90;;;;;;5075530;27;38694;-62
2022/01/13 07:51:34;;;;;;;57.30;18.42;;;7.20;99.90;;;;;;5074483;27;37148;-62
2022/01/13 07:54:02;;;;;;;42.55;17.17;;;7.20;99.90;;;;;;5077408;27;38503;-62
2022/01/13 07:56:29;;;;;;;44.22;18.55;;;7.20;99.90;;;;;;5077876;27;36549;-62
2022/01/13 07:58:58;;;;;;;53.63;18.88;;;7.20;99.90;;;;;;5078570;27;38427;-62
2022/01/13 08:01:26;;;;;;;45.22;18.50;;;7.20;99.90;;;;;;5077473;28;39405;-62
2022/01/13 08:03:53;;;;;;;42.95;17.63;;;7.20;99.90;;;;;;5077839;27;37405;-62
2022/01/13 08:06:20;;;;;;;62.97;20.50;;;7.20;99.90;;;;;;5073690;28;37645;-62
2022/01/13 08:08:48;;;;;;;45.25;18.50;;;7.20;99.90;;;;;;5075015;28;36924;-63
2022/01/13 08:11:16;;;;;;;50.38;18.27;;;7.20;99.90;;;;;;5077484;27;37568;-62
2022/01/13 08:13:44;;;;;;;47.95;17.85;;;7.30;99.90;;;;;;5077861;27;38736;-62
2022/01/13 08:16:16;;;;;;;62.47;19.83;;;7.30;99.90;;;;;;5076841;28;38380;-62
2022/01/13 08:21:28;;;;;;;52.60;19.30;;;7.30;99.90;;;;;;5074025;28;38913;-61
2022/01/13 08:23:55;;;;;;;49.25;18.92;;;7.30;99.90;;;;;;5077362;28;37542;-62
2022/01/13 08:26:23;;;;;;;51.60;20.17;;;7.30;99.90;;;;;;5078449;28;36517;-62
2022/01/13 08:28:50;;;;;;;53.55;19.15;;;7.30;99.90;;;;;;5077324;27;37487;-62
2022/01/13 08:31:19;;;;;;;49.72;20.00;;;7.30;99.90;;;;;;5078183;27;36743;-62
2022/01/13 08:33:46;;;;;;;46.03;18.58;;;7.30;99.90;;;;;;5077303;27;37738;-62
2022/01/13 08:36:13;;;;;;;37.75;17.77;;;7.30;99.90;;;;;;5078069;28;38547;-62
2022/01/13 08:38:41;;;;;;;41.13;17.90;;;7.40;99.90;;;;;;5078564;27;37612;-62
2022/01/13 08:41:08;;;;;;;45.17;18.67;;;7.30;99.90;;;;;;5077468;28;36537;-62
2022/01/13 08:43:36;;;;;;;53.47;19.73;;;7.30;99.90;;;;;;5078342;28;37799;-62
2022/01/13 08:46:04;;;;;;;48.20;19.48;;;7.30;99.90;;;;;;5078970;27;37532;-62
2022/01/13 08:48:34;;;;;;;44.72;18.70;;;7.30;99.90;;;;;;5077393;27;38670;-62
2022/01/13 08:51:01;;;;;;;46.90;18.92;;;7.40;99.90;;;;;;5077474;27;35096;-62
2022/01/13 08:53:29;;;;;;;50.25;19.70;;;7.30;99.90;;;;;;5077922;27;37539;-62
2022/01/13 08:55:58;;;;;;;44.80;18.50;;;7.30;99.90;;;;;;5076201;28;36484;-62
2022/01/13 08:58:25;;;;;;;50.90;19.60;;;7.30;99.90;;;;;;5076971;27;39857;-62
2022/01/13 09:00:55;;;;;;;50.33;18.95;;;7.30;99.90;;;;;;5076578;28;35631;-62
2022/01/13 09:03:23;;;;;;;48.03;18.75;;;7.40;99.90;;;;;;5077594;27;39067;-62
2022/01/13 09:05:52;;;;;;;45.38;19.13;;;7.40;99.90;;;;;;5076243;27;38704;-62
2022/01/13 09:08:19;;;;;;;52.97;19.63;;;7.40;99.90;;;;;;5077918;27;37741;-62
2022/01/13 09:10:47;;;;;;;40.35;18.00;;;7.40;99.90;;;;;;5072384;27;36949;-62
2022/01/13 09:13:16;;;;;;;41.35;19.05;;;7.40;99.90;;;;;;5075374;28;38458;-61
2022/01/13 09:15:47;;;;;;;45.65;18.20;;;7.40;99.90;;;;;;5075815;28;36414;-61
2022/01/13 09:18:18;;;;;;;42.70;18.35;;;7.30;99.90;;;;;;5074963;28;37441;-61
2022/01/13 09:20:47;;;;;;;44.47;19.20;;;7.30;99.90;;;;;;5075355;27;36635;-61
2022/01/13 09:23:15;;;;;;;48.72;19.45;;;7.30;99.90;;;;;;5071563;27;38791;-61
2022/01/13 09:25:43;;;;;;;47.58;19.20;;;7.40;99.90;;;;;;5074634;28;38033;-61
2022/01/13 09:28:10;;;;;;;40.75;17.98;;;7.30;99.90;;;;;;5073453;27;37656;-62
2022/01/13 09:30:39;;;;;;;47.10;19.05;;;7.40;99.90;;;;;;5074809;28;37116;-61
2022/01/13 09:33:07;;;;;;;47.72;19.80;;;7.40;99.90;;;;;;5072984;28;37896;-61
2022/01/13 09:35:35;;;;;;;43.17;18.45;;;7.40;99.90;;;;;;5073770;28;38262;-61
2022/01/13 09:38:03;;;;;;;56.88;21.27;;;7.40;99.90;;;;;;5072619;28;39882;-62
2022/01/13 09:40:32;;;;;;;47.10;18.85;;;7.40;99.90;;;;;;5073560;27;37897;-61
2022/01/13 09:43:02;;;;;;;46.40;19.75;;;7.30;99.90;;;;;;5073948;27;37689;-61
2022/01/13 09:45:30;;;;;;;45.22;19.50;;;7.40;99.90;;;;;;5073782;27;36416;-61
2022/01/13 09:47:58;;;;;;;44.05;19.63;;;7.50;99.90;;;;;;5073029;27;36293;-62
2022/01/13 09:50:26;;;;;;;45.83;20.08;;;7.40;99.90;;;;;;5073989;28;34995;-61
2022/01/13 09:52:53;;;;;;;48.65;19.95;;;7.40;99.90;;;;;;5073559;27;37617;-61
2022/01/13 09:55:21;;;;;;;44.35;19.95;;;7.40;99.90;;;;;;5074700;28;37759;-61
2022/01/13 09:57:52;;;;;;;41.80;19.17;;;7.40;99.90;;;;;;5074501;27;37393;-61
2022/01/13 10:00:22;;;;;;;48.35;20.65;;;7.50;99.90;;;;;;5074149;27;36191;-61
2022/01/13 10:02:50;;;;;;;42.25;20.05;;;7.50;99.90;;;;;;5074371;27;37463;-61
2022/01/13 10:05:18;;;;;;;41.38;20.73;;;7.50;99.90;;;;;;5075059;27;37870;-61
2022/01/13 10:07:47;;;;;;;43.40;20.63;;;7.50;99.90;;;;;;5074086;27;37257;-62
2022/01/13 10:10:17;;;;;;;45.95;22.02;;;7.50;99.90;;;;;;5074762;27;35604;-61
2022/01/13 10:12:45;;;;;;;49.38;20.88;;;7.50;99.90;;;;;;5072825;27;38713;-62
2022/01/13 10:18:01;;;;;;;49.28;21.80;;;7.40;99.90;;;;;;5074782;28;37488;-61
2022/01/13 10:20:29;;;;;;;43.30;20.10;;;7.50;99.90;;;;;;5073128;28;37748;-62
2022/01/13 10:23:05;;;;;;;46.33;21.77;;;7.50;99.90;;;;;;5074039;27;38905;-61
2022/01/13 10:25:34;;;;;;;45.55;22.55;;;7.50;99.90;;;;;;5074917;28;37710;-61
2022/01/13 10:28:17;;;;;;;42.72;21.42;;;7.50;99.90;;;;;;5072231;27;39297;-61
2022/01/13 10:30:49;;;;;;;46.53;21.52;;;7.60;99.90;;;;;;5072874;28;37038;-62
2022/01/13 10:33:18;;;;;;;45.92;20.77;;;7.60;99.90;;;;;;5071631;28;37572;-61
2022/01/13 10:35:47;;;;;;;48.25;22.27;;;7.60;99.90;;;;;;5071642;27;38514;-61
2022/01/13 10:38:16;;;;;;;38.03;20.60;;;7.60;99.90;;;;;;5073258;27;37268;-61
2022/01/13 10:40:47;;;;;;;44.95;22.05;;;7.60;99.90;;;;;;5072503;28;39578;-61
2022/01/13 10:43:16;;;;;;;47.95;21.25;;;7.60;99.90;;;;;;5072087;27;37288;-61
2022/01/13 10:45:51;;;;;;;41.78;21.40;;;7.70;99.90;;;;;;5074330;27;38234;-61
2022/01/13 10:48:22;;;;;;;56.10;23.45;;;7.70;99.90;;;;;;5073804;28;36829;-61
2022/01/13 10:50:53;;;;;;;46.33;22.90;;;7.70;99.90;;;;;;5072526;27;38470;-61
2022/01/13 10:53:24;;;;;;;49.65;23.17;;;7.60;99.90;;;;;;5073606;27;37674;-61
2022/01/13 10:55:54;;;;;;;49.28;23.17;;;7.60;99.90;;;;;;5073918;28;38755;-61
2022/01/13 10:58:25;;;;;;;50.67;23.40;;;7.70;99.90;;;;;;5073130;28;38014;-61
2022/01/13 11:00:55;;;;;;;41.42;23.20;;;7.60;99.90;;;;;;5074209;27;36427;-61
2022/01/13 11:03:24;;;;;;;43.80;22.70;;;7.70;99.90;;;;;;5073673;27;37678;-61
2022/01/13 11:05:53;;;;;;;44.63;22.77;;;7.60;99.90;;;;;;5072857;28;37830;-61
2022/01/13 11:08:24;;;;;;;49.58;22.90;;;7.70;99.90;;;;;;5072219;28;39076;-61
2022/01/13 11:10:54;;;;;;;47.00;22.42;;;7.70;99.90;;;;;;5073026;27;36652;-61
2022/01/13 11:13:23;;;;;;;56.10;24.13;;;7.70;99.90;;;;;;5073430;27;39803;-61
2022/01/13 11:15:55;;;;;;;50.92;23.98;;;7.70;99.90;;;;;;5073260;28;38451;-61
2022/01/13 11:18:25;;;;;;;44.95;22.50;;;7.70;99.90;;;;;;5074419;28;36319;-61
2022/01/13 11:20:53;;;;;;;48.58;23.50;;;7.80;99.90;;;;;;5073355;28;36857;-61
2022/01/13 11:23:21;;;;;;;49.60;22.15;;;7.80;99.90;;;;;;5070438;27;37419;-61
2022/01/13 11:25:50;;;;;;;41.80;22.45;;;7.80;99.90;;;;;;5073182;28;38205;-61
2022/01/13 11:28:19;;;;;;;47.50;22.08;;;7.90;99.90;;;;;;5075181;27;38137;-61
2022/01/13 11:30:49;;;;;;;43.63;23.05;;;7.80;99.90;;;;;;5077676;27;37693;-61
2022/01/13 11:33:17;;;;;;;44.40;21.13;;;7.80;99.90;;;;;;5077606;27;38984;-61
2022/01/13 11:35:53;;;;;;;43.70;21.60;;;7.80;99.90;;;;;;5075598;28;36502;-61
2022/01/13 11:38:21;;;;;;;44.53;22.75;;;7.90;99.90;;;;;;5076663;27;37888;-61
2022/01/13 11:40:49;;;;;;;40.00;21.15;;;7.90;99.90;;;;;;5077468;27;37814;-61
2022/01/13 11:43:36;;;;;;;46.95;22.27;;;7.90;99.90;;;;;;5075760;28;37329;-61
2022/01/13 11:46:20;;;;;;;43.13;21.98;;;7.90;99.90;;;;;;5077884;27;39611;-61
2022/01/13 11:49:05;;;;;;;39.88;20.60;;;7.90;99.90;;;;;;5077177;28;37925;-61
2022/01/13 11:51:45;;;;;;;39.00;20.42;;;7.90;99.90;;;;;;5076609;28;36266;-61
2022/01/13 11:54:25;;;;;;;39.33;21.45;;;7.90;99.90;;;;;;5077771;27;37440;-61
2022/01/13 11:57:12;;;;;;;35.53;21.98;;;7.90;99.90;;;;;;5076953;27;38575;-61
2022/01/13 11:59:40;;;;;;;42.95;20.30;;;7.90;99.90;;;;;;5078027;27;38080;-61
2022/01/13 12:02:32;;;;;;;33.63;18.63;;;8.00;99.90;;;;;;5076605;28;36755;-61
2022/01/13 12:05:01;;;;;;;34.42;19.02;;;8.00;99.90;;;;;;5058832;27;38522;-61
2022/01/13 12:07:42;;;;;;;40.55;21.20;;;8.00;99.90;;;;;;5073815;27;37929;-61
2022/01/13 12:10:11;;;;;;;38.40;19.63;;;8.00;99.90;;;;;;5072611;27;37290;-61
2022/01/13 12:12:38;;;;;;;35.65;19.75;;;8.00;99.90;;;;;;5075207;27;36474;-61
2022/01/13 12:15:17;;;;;;;40.28;20.67;;;8.00;99.90;;;;;;5074053;28;38428;-61
2022/01/13 12:17:46;;;;;;;40.88;22.25;;;8.00;99.90;;;;;;5074245;27;37735;-61
2022/01/13 12:20:25;;;;;;;33.97;18.60;;;8.00;99.90;;;;;;5073402;27;37940;-62
2022/01/13 12:23:03;;;;;;;31.45;16.80;;;8.00;99.90;;;;;;5074000;28;35483;-61
2022/01/13 12:25:32;;;;;;;33.33;18.90;;;8.00;99.90;;;;;;5076047;27;37534;-61
2022/01/13 12:28:12;;;;;;;32.85;18.45;;;8.10;99.90;;;;;;5076064;27;37527;-61
2022/01/13 12:30:40;;;;;;;33.20;18.92;;;8.10;99.90;;;;;;5077057;27;38207;-60
2022/01/13 12:33:09;;;;;;;35.67;19.88;;;8.10;99.90;;;;;;5074756;27;35821;-61
2022/01/13 12:35:44;;;;;;;36.92;20.15;;;8.10;99.90;;;;;;5076683;28;38692;-61
2022/01/13 12:38:15;;;;;;;33.33;18.55;;;8.20;99.90;;;;;;5076557;27;39095;-61
2022/01/13 12:40:50;;;;;;;28.67;17.63;;;8.20;99.90;;;;;;5077327;27;37514;-61
2022/01/13 12:43:36;;;;;;;34.38;19.38;;;8.20;99.90;;;;;;5076436;27;37551;-61
2022/01/13 12:46:05;;;;;;;39.28;18.20;;;8.30;99.90;;;;;;5075222;27;37772;-61
2022/01/13 12:48:34;;;;;;;34.45;19.35;;;8.30;99.90;;;;;;5076553;27;37793;-61
2022/01/13 12:51:02;;;;;;;36.28;18.92;;;8.30;99.90;;;;;;5075166;27;37736;-61
2022/01/13 12:53:33;;;;;;;38.45;21.00;;;8.40;99.90;;;;;;5076429;28;37818;-61
2022/01/13 12:56:02;;;;;;;35.50;18.25;;;8.40;99.90;;;;;;5074108;27;37484;-61
2022/01/13 12:58:32;;;;;;;29.92;16.40;;;8.40;99.90;;;;;;5073466;27;37600;-61
2022/01/13 13:01:03;;;;;;;29.23;16.90;;;8.50;99.90;;;;;;5074147;27;38107;-61
2022/01/13 13:03:31;;;;;;;31.23;18.17;;;8.50;99.90;;;;;;5075171;28;36578;-61
2022/01/13 13:05:58;;;;;;;36.03;18.48;;;8.60;99.90;;;;;;5074107;27;37370;-61